Time;durP1;ratioP1;P1;durP2;ratioP2;P2;SDS_P1;SDS_P2;PMS_P1;PMS_P2;Temp;Humidity;BMP_temperature;BMP_pressure;BME280_temperature;BME280_humidity;BME280_pressure;Samples;Min_cycle;Max_cycle;Signal;HPM_P1;HPM_P2
2022/01/20 00:00:44;;;;;;;6.22;3.85;;;3.80;62.10;;;;;;5041663;28;46594;-80
2022/01/20 00:03:16;;;;;;;5.83;3.80;;;3.80;62.10;;;;;;5045407;28;46744;-80
2022/01/20 00:27:32;;;;;;;6.22;3.10;;;3.80;62.20;;;;;;5039911;28;46229;-79
2022/01/20 00:37:40;;;;;;;4.38;2.28;;;3.80;62.00;;;;;;5048791;28;46972;-81
2022/01/20 00:40:07;;;;;;;6.10;3.10;;;3.80;62.00;;;;;;5027064;28;47184;-81
2022/01/20 00:42:32;;;;;;;5.47;3.17;;;3.80;62.00;;;;;;5043508;28;46443;-80
2022/01/20 00:44:58;;;;;;;4.97;3.00;;;3.80;62.10;;;;;;5044167;28;46565;-80
2022/01/20 00:47:23;;;;;;;6.30;3.50;;;3.80;61.90;;;;;;5042193;28;46410;-79
2022/01/20 00:49:49;;;;;;;6.80;3.07;;;3.80;62.00;;;;;;5026674;28;47015;-80
2022/01/20 00:52:15;;;;;;;4.20;3.20;;;3.80;61.90;;;;;;5042779;28;46404;-82
2022/01/20 00:54:41;;;;;;;4.80;3.05;;;3.80;61.90;;;;;;5045268;28;46309;-82
2022/01/20 00:57:07;;;;;;;4.10;3.13;;;3.80;62.00;;;;;;5047022;28;46642;-82
2022/01/20 00:59:35;;;;;;;6.40;3.00;;;3.80;62.00;;;;;;5038948;28;46671;-82
2022/01/20 01:02:07;;;;;;;4.45;2.95;;;3.80;61.90;;;;;;5054997;28;45788;-82
2022/01/20 01:04:36;;;;;;;4.23;2.87;;;3.80;62.00;;;;;;5034641;28;46487;-81
2022/01/20 01:07:25;;;;;;;5.47;2.78;;;3.90;62.00;;;;;;5047164;28;46957;-82
2022/01/20 01:09:50;;;;;;;4.50;3.05;;;3.90;62.00;;;;;;5045703;28;46423;-82
2022/01/20 01:12:26;;;;;;;4.33;2.87;;;3.90;61.90;;;;;;5043830;28;46335;-79
2022/01/20 01:14:52;;;;;;;4.13;2.97;;;3.90;61.90;;;;;;5039630;28;46443;-79
2022/01/20 01:24:45;;;;;;;5.63;3.37;;;3.80;61.80;;;;;;5051077;28;46240;-79
2022/01/20 01:27:12;;;;;;;4.70;2.72;;;3.90;61.90;;;;;;5033285;28;48623;-81
2022/01/20 01:32:14;;;;;;;6.43;3.13;;;3.80;61.70;;;;;;5040188;28;46554;-79
2022/01/20 01:34:48;;;;;;;4.67;2.97;;;3.80;61.80;;;;;;5035256;28;46429;-79
2022/01/20 01:40:03;;;;;;;4.90;2.42;;;3.80;61.70;;;;;;5045055;28;46394;-81
2022/01/20 01:45:33;;;;;;;3.40;2.30;;;3.80;61.90;;;;;;5038922;28;46683;-80
2022/01/20 01:47:59;;;;;;;3.53;2.10;;;3.80;61.90;;;;;;5030247;28;47597;-80
2022/01/20 01:50:25;;;;;;;4.13;2.40;;;3.80;62.00;;;;;;5042974;28;46575;-80
2022/01/20 01:52:53;;;;;;;4.45;3.13;;;3.70;62.00;;;;;;5042741;28;46331;-80
2022/01/20 01:55:19;;;;;;;4.40;3.23;;;3.70;62.30;;;;;;5049996;28;46551;-81
2022/01/20 01:57:45;;;;;;;4.53;3.00;;;3.60;62.40;;;;;;5052513;28;47000;-79
2022/01/20 02:00:12;;;;;;;4.90;3.00;;;3.60;62.50;;;;;;5045418;28;46649;-79
2022/01/20 02:02:37;;;;;;;4.72;2.97;;;3.60;62.50;;;;;;5043957;28;46387;-80
2022/01/20 02:05:11;;;;;;;3.63;2.60;;;3.60;62.80;;;;;;5047065;28;46625;-79
2022/01/20 02:20:54;;;;;;;5.40;3.30;;;3.30;63.50;;;;;;5043859;28;46459;-80
2022/01/20 02:23:26;;;;;;;4.70;3.08;;;3.30;63.40;;;;;;5043372;28;46244;-81
2022/01/20 02:25:51;;;;;;;5.70;3.70;;;3.30;63.40;;;;;;5044039;28;46711;-80
2022/01/20 02:28:17;;;;;;;8.00;2.73;;;3.30;63.50;;;;;;5046330;28;46321;-81
2022/01/20 02:30:43;;;;;;;7.33;4.03;;;3.20;63.80;;;;;;5046486;28;46448;-81
2022/01/20 02:33:18;;;;;;;6.47;3.30;;;3.20;64.10;;;;;;5045850;28;46339;-81
2022/01/20 02:35:49;;;;;;;5.53;3.57;;;3.20;64.10;;;;;;5049738;28;46353;-81
2022/01/20 02:38:22;;;;;;;5.40;3.35;;;3.20;64.10;;;;;;5055904;28;46687;-83
2022/01/20 02:46:05;;;;;;;4.43;3.10;;;3.20;64.40;;;;;;5044177;28;46516;-82
2022/01/20 02:48:30;;;;;;;4.18;3.28;;;3.10;64.80;;;;;;5045661;28;46438;-81
2022/01/20 02:50:57;;;;;;;4.97;3.30;;;3.00;64.90;;;;;;5042565;28;45884;-82
2022/01/20 02:53:23;;;;;;;4.97;3.42;;;3.00;65.30;;;;;;5035746;28;46443;-80
2022/01/20 02:55:51;;;;;;;6.33;3.50;;;3.00;65.30;;;;;;5044620;28;46390;-77
2022/01/20 02:58:19;;;;;;;6.63;4.28;;;3.00;65.30;;;;;;5048914;28;46222;-83
2022/01/20 03:00:46;;;;;;;4.45;3.03;;;3.10;65.20;;;;;;5026784;28;46486;-80
2022/01/20 03:03:12;;;;;;;5.18;3.15;;;3.00;65.20;;;;;;5044144;28;46364;-80
2022/01/20 03:05:38;;;;;;;4.72;3.38;;;3.00;65.30;;;;;;5046192;28;46357;-81
2022/01/20 03:08:03;;;;;;;6.57;3.80;;;2.90;65.60;;;;;;5046676;28;48922;-79
2022/01/20 03:10:30;;;;;;;5.50;3.17;;;2.90;65.80;;;;;;5045334;28;46430;-80
2022/01/20 03:12:56;;;;;;;6.57;3.65;;;2.90;66.00;;;;;;5042794;28;46356;-76
2022/01/20 03:15:23;;;;;;;6.43;4.20;;;2.90;66.10;;;;;;5042580;28;46257;-79
2022/01/20 03:17:48;;;;;;;5.68;4.55;;;2.90;66.10;;;;;;5043703;28;46268;-77
2022/01/20 03:20:16;;;;;;;5.23;3.37;;;2.80;66.40;;;;;;5042186;28;46366;-79
2022/01/20 03:22:43;;;;;;;8.50;5.07;;;2.80;66.50;;;;;;5026826;28;46456;-77
2022/01/20 03:25:09;;;;;;;6.43;3.90;;;2.80;66.50;;;;;;5048041;28;46408;-78
2022/01/20 03:27:34;;;;;;;6.70;4.30;;;2.80;66.60;;;;;;5044554;28;46434;-79
2022/01/20 03:30:00;;;;;;;5.57;3.30;;;2.80;66.90;;;;;;5043808;28;46497;-77
2022/01/20 03:32:25;;;;;;;7.53;4.47;;;2.70;67.50;;;;;;5029696;28;46503;-78
2022/01/20 03:34:51;;;;;;;6.73;3.40;;;2.60;67.90;;;;;;5042301;28;46435;-78
2022/01/20 03:37:16;;;;;;;5.43;3.63;;;2.50;68.10;;;;;;5043424;28;46683;-78
2022/01/20 03:39:42;;;;;;;6.23;3.83;;;2.50;68.20;;;;;;5034205;28;46390;-79
2022/01/20 03:42:08;;;;;;;6.27;3.40;;;2.50;68.40;;;;;;5044343;28;46629;-79
2022/01/20 03:44:33;;;;;;;5.50;3.60;;;2.40;68.80;;;;;;5037167;28;46300;-79
2022/01/20 03:47:02;;;;;;;6.20;3.47;;;2.40;68.90;;;;;;5032612;28;47982;-81
2022/01/20 03:52:19;;;;;;;9.30;4.13;;;2.40;68.90;;;;;;5025065;28;46655;-80
2022/01/20 03:54:44;;;;;;;8.75;3.97;;;2.50;69.10;;;;;;5032313;28;46799;-79
2022/01/20 03:57:10;;;;;;;6.03;4.40;;;2.40;69.10;;;;;;5049258;28;47379;-77
2022/01/20 03:59:36;;;;;;;5.70;3.67;;;2.40;69.10;;;;;;5049205;28;46530;-81
2022/01/20 04:02:02;;;;;;;6.63;3.70;;;2.40;69.20;;;;;;5043205;28;46467;-79
2022/01/20 04:04:28;;;;;;;8.40;3.90;;;2.40;69.50;;;;;;5027371;28;46418;-80
2022/01/20 04:06:54;;;;;;;6.40;4.37;;;2.40;70.00;;;;;;5047170;28;46585;-81
2022/01/20 04:09:20;;;;;;;5.35;4.30;;;2.30;70.30;;;;;;5035473;28;46400;-81
2022/01/20 04:11:46;;;;;;;5.17;3.50;;;2.30;70.60;;;;;;5043809;28;46403;-79
2022/01/20 04:14:13;;;;;;;5.47;3.93;;;2.30;70.90;;;;;;5028486;28;46518;-80
2022/01/20 04:19:27;;;;;;;7.25;4.15;;;2.30;71.00;;;;;;5039229;28;46201;-78
2022/01/20 04:21:53;;;;;;;6.93;4.38;;;2.30;70.90;;;;;;5045977;28;46581;-80
2022/01/20 04:24:19;;;;;;;5.30;4.30;;;2.30;71.30;;;;;;5049627;28;45864;-81
2022/01/20 04:26:46;;;;;;;6.57;3.90;;;2.30;71.30;;;;;;5051735;28;47213;-81
2022/01/20 04:29:13;;;;;;;6.63;4.40;;;2.30;71.30;;;;;;5047574;28;46422;-81
2022/01/20 04:31:40;;;;;;;5.93;4.25;;;2.30;71.30;;;;;;5048942;28;46636;-79
2022/01/20 04:34:07;;;;;;;7.15;4.15;;;2.30;71.30;;;;;;5047221;28;46355;-79
2022/01/20 04:36:39;;;;;;;6.82;4.43;;;2.30;71.30;;;;;;5017788;28;48048;-78
2022/01/20 04:39:09;;;;;;;7.22;4.20;;;2.40;71.40;;;;;;5033344;28;46304;-79
2022/01/20 04:41:35;;;;;;;5.95;4.05;;;2.40;71.20;;;;;;5036679;28;45947;-77
2022/01/20 04:44:02;;;;;;;7.38;4.53;;;2.40;71.00;;;;;;5052161;28;46420;-79
2022/01/20 04:57:18;;;;;;;10.88;5.70;;;2.40;71.50;;;;;;5048031;28;46291;-78
2022/01/20 04:59:45;;;;;;;7.68;4.78;;;2.40;71.40;;;;;;5043639;28;46429;-78
2022/01/20 05:02:13;;;;;;;8.80;5.20;;;2.40;71.40;;;;;;5044259;28;46442;-80
2022/01/20 05:04:42;;;;;;;8.77;5.03;;;2.40;71.40;;;;;;5042847;28;46410;-79
2022/01/20 05:07:18;;;;;;;8.68;5.25;;;2.40;71.50;;;;;;5032018;28;48321;-78
2022/01/20 05:09:44;;;;;;;10.02;5.63;;;2.40;71.40;;;;;;5031736;28;46986;-81
2022/01/20 05:12:17;;;;;;;11.57;5.80;;;2.40;71.40;;;;;;5043718;28;46449;-78
2022/01/20 05:14:42;;;;;;;7.88;5.07;;;2.40;71.40;;;;;;5043371;28;46421;-78
2022/01/20 05:17:08;;;;;;;8.80;5.57;;;2.40;71.40;;;;;;5044143;28;47131;-78
2022/01/20 05:19:34;;;;;;;9.77;5.70;;;2.40;71.60;;;;;;5043639;28;46244;-79
2022/01/20 05:22:00;;;;;;;10.10;5.53;;;2.40;71.80;;;;;;5046433;28;47689;-78
2022/01/20 05:24:26;;;;;;;10.23;5.40;;;2.40;72.00;;;;;;5048689;28;46610;-79
2022/01/20 05:26:54;;;;;;;8.67;5.90;;;2.40;72.10;;;;;;5051789;28;46316;-79
2022/01/20 05:29:21;;;;;;;11.07;5.85;;;2.40;71.60;;;;;;5044252;28;46555;-79
2022/01/20 05:31:50;;;;;;;8.18;5.28;;;2.50;71.50;;;;;;5043384;28;46277;-78
2022/01/20 05:34:16;;;;;;;10.40;6.43;;;2.50;71.50;;;;;;5051834;28;46629;-78
2022/01/20 05:36:44;;;;;;;9.85;5.47;;;2.50;71.50;;;;;;5036409;28;48148;-81
2022/01/20 05:39:09;;;;;;;10.40;6.03;;;2.50;71.50;;;;;;5050098;28;46354;-80
2022/01/20 05:41:35;;;;;;;10.00;6.63;;;2.50;71.50;;;;;;5045385;28;46482;-81
2022/01/20 05:44:04;;;;;;;10.10;5.95;;;2.50;71.50;;;;;;5041217;28;46650;-78
2022/01/20 05:46:36;;;;;;;8.70;5.90;;;2.50;71.50;;;;;;5046639;28;46312;-80
2022/01/20 05:49:08;;;;;;;9.48;6.60;;;2.60;71.60;;;;;;5037071;28;46403;-80
2022/01/20 05:51:41;;;;;;;10.20;5.60;;;2.60;71.60;;;;;;5038694;28;46870;-78
2022/01/20 05:54:09;;;;;;;9.90;5.90;;;2.70;71.70;;;;;;5046062;28;46654;-79
2022/01/20 05:56:35;;;;;;;10.32;5.82;;;2.70;71.70;;;;;;5045335;28;46375;-80
2022/01/20 05:59:01;;;;;;;12.35;6.50;;;2.70;71.70;;;;;;5047040;28;46683;-80
2022/01/20 06:01:32;;;;;;;8.40;6.07;;;2.80;71.70;;;;;;5049142;28;46699;-80
2022/01/20 06:03:57;;;;;;;7.80;5.90;;;2.70;71.70;;;;;;5050877;28;46287;-82
2022/01/20 06:06:23;;;;;;;9.30;6.43;;;2.70;71.70;;;;;;5052714;28;47611;-82
2022/01/20 06:08:49;;;;;;;7.10;5.23;;;2.70;71.70;;;;;;5042593;28;46217;-81
2022/01/20 06:11:15;;;;;;;8.18;5.30;;;2.70;71.70;;;;;;5052499;28;46755;-78
2022/01/20 06:13:41;;;;;;;9.47;5.43;;;2.70;71.70;;;;;;5048534;28;46379;-80
2022/01/20 06:16:06;;;;;;;7.90;5.50;;;2.80;71.70;;;;;;5029940;28;48320;-79
2022/01/20 06:18:32;;;;;;;7.53;5.20;;;2.70;71.70;;;;;;5048326;28;46705;-78
2022/01/20 06:20:58;;;;;;;6.18;4.82;;;2.80;71.80;;;;;;5043971;28;46470;-78
2022/01/20 06:23:24;;;;;;;8.03;4.40;;;2.80;71.80;;;;;;5043416;28;46325;-79
2022/01/20 06:25:55;;;;;;;9.65;4.32;;;2.80;71.80;;;;;;5043904;28;46288;-78
2022/01/20 06:28:21;;;;;;;6.68;4.65;;;2.80;71.70;;;;;;5043390;28;46706;-78
2022/01/20 06:30:47;;;;;;;4.70;3.25;;;2.80;71.70;;;;;;5026716;28;46384;-79
2022/01/20 06:33:13;;;;;;;6.00;4.00;;;2.70;72.90;;;;;;5044358;28;46465;-78
2022/01/20 06:35:41;;;;;;;6.40;4.57;;;2.70;73.40;;;;;;5042729;28;46305;-79
2022/01/20 06:38:06;;;;;;;6.25;3.72;;;2.70;72.80;;;;;;5042300;28;46332;-79
2022/01/20 06:40:35;;;;;;;5.30;3.47;;;2.80;72.80;;;;;;5044903;28;46368;-80
2022/01/20 06:43:07;;;;;;;5.47;3.85;;;2.80;72.50;;;;;;5033466;28;46421;-79
2022/01/20 06:45:32;;;;;;;3.97;3.10;;;2.80;72.70;;;;;;5046736;28;47087;-79
2022/01/20 06:47:58;;;;;;;4.47;3.60;;;2.80;72.70;;;;;;5042504;28;46779;-79
2022/01/20 06:50:24;;;;;;;4.90;3.33;;;2.80;72.40;;;;;;5035558;28;46502;-78
2022/01/20 06:52:50;;;;;;;4.82;3.22;;;2.80;72.40;;;;;;5045487;28;46383;-78
2022/01/20 06:55:16;;;;;;;5.03;4.00;;;2.80;72.50;;;;;;5043261;28;46656;-78
2022/01/20 06:57:44;;;;;;;5.27;3.40;;;2.90;72.30;;;;;;5043961;28;46696;-79
2022/01/20 07:00:16;;;;;;;4.70;3.55;;;2.80;72.00;;;;;;5043685;28;46342;-79
2022/01/20 07:02:44;;;;;;;5.15;3.20;;;2.80;72.20;;;;;;5043745;28;46413;-79
2022/01/20 07:05:12;;;;;;;7.65;3.80;;;2.80;72.30;;;;;;5040457;28;46330;-81
2022/01/20 07:07:38;;;;;;;4.07;2.85;;;2.90;72.30;;;;;;5047277;28;46446;-78
2022/01/20 07:10:10;;;;;;;5.80;3.30;;;2.90;72.00;;;;;;5052868;28;45895;-77
2022/01/20 07:12:36;;;;;;;5.90;3.05;;;2.90;71.90;;;;;;5042744;28;46406;-81
2022/01/20 07:15:05;;;;;;;3.83;2.95;;;2.90;72.30;;;;;;5029080;28;48553;-80
2022/01/20 07:17:33;;;;;;;4.78;3.60;;;2.90;72.20;;;;;;5041544;28;46751;-78
2022/01/20 07:19:59;;;;;;;4.65;3.70;;;2.90;72.50;;;;;;5042719;28;46684;-81
2022/01/20 07:22:24;;;;;;;4.17;3.20;;;2.90;73.20;;;;;;5043268;28;46092;-81
2022/01/20 07:24:50;;;;;;;4.23;3.27;;;3.00;73.10;;;;;;5044284;28;46305;-81
2022/01/20 07:27:16;;;;;;;4.40;3.00;;;3.00;72.90;;;;;;5043982;28;46391;-79
2022/01/20 07:29:42;;;;;;;3.90;3.10;;;3.00;72.70;;;;;;5041519;28;46410;-79
2022/01/20 07:32:08;;;;;;;4.60;3.40;;;3.10;72.80;;;;;;5034098;28;46423;-80
2022/01/20 07:34:34;;;;;;;3.60;3.17;;;3.10;72.60;;;;;;5049206;28;47539;-83
2022/01/20 07:37:02;;;;;;;3.53;2.50;;;3.10;72.20;;;;;;5048960;28;46405;-81
2022/01/20 07:39:30;;;;;;;4.00;2.88;;;3.20;72.10;;;;;;5038784;28;46380;-81
2022/01/20 07:41:56;;;;;;;4.73;3.10;;;3.20;72.10;;;;;;5034093;28;46690;-82
2022/01/20 07:44:21;;;;;;;4.60;3.30;;;3.20;72.10;;;;;;5038314;28;48556;-82
2022/01/20 07:46:48;;;;;;;4.80;3.17;;;3.20;72.10;;;;;;5048794;28;46470;-82
2022/01/20 07:49:14;;;;;;;7.55;3.53;;;3.20;72.10;;;;;;5040134;28;46578;-82
2022/01/20 07:51:43;;;;;;;4.90;3.35;;;3.30;72.30;;;;;;5048076;28;46785;-78
2022/01/20 07:54:09;;;;;;;4.47;3.37;;;3.40;72.30;;;;;;5045356;28;46655;-80
2022/01/20 07:56:35;;;;;;;5.47;3.10;;;3.40;72.30;;;;;;5046982;28;46371;-79
2022/01/20 07:59:01;;;;;;;4.33;2.87;;;3.40;72.30;;;;;;5042113;28;46245;-81
2022/01/20 08:01:26;;;;;;;4.17;3.10;;;3.30;72.20;;;;;;5042679;28;46332;-82
2022/01/20 08:03:55;;;;;;;4.73;3.27;;;3.30;72.20;;;;;;5048823;28;46374;-81
2022/01/20 08:06:22;;;;;;;4.07;3.00;;;3.20;72.10;;;;;;5045265;28;46680;-81
2022/01/20 08:08:50;;;;;;;5.18;3.30;;;3.20;72.10;;;;;;5045076;28;46825;-82
2022/01/20 08:11:16;;;;;;;4.30;2.97;;;3.20;72.10;;;;;;5037839;28;46368;-81
2022/01/20 08:13:42;;;;;;;4.00;3.17;;;3.20;72.10;;;;;;5046835;28;46753;-81
2022/01/20 08:16:10;;;;;;;4.60;3.27;;;3.20;72.20;;;;;;5051336;28;46363;-80
2022/01/20 08:18:35;;;;;;;4.47;3.40;;;3.30;72.30;;;;;;5046075;28;46929;-80
2022/01/20 08:21:01;;;;;;;3.70;2.70;;;3.30;72.20;;;;;;5038314;28;46356;-80
2022/01/20 08:23:26;;;;;;;4.50;2.83;;;3.30;72.20;;;;;;5044656;28;46727;-80
2022/01/20 08:25:52;;;;;;;4.30;3.60;;;3.40;72.30;;;;;;5048486;28;47461;-78
2022/01/20 08:28:21;;;;;;;4.07;2.97;;;3.30;72.20;;;;;;5036163;28;47100;-83
2022/01/20 08:30:46;;;;;;;7.15;3.40;;;3.30;72.20;;;;;;5053063;28;46383;-79
2022/01/20 08:33:12;;;;;;;3.90;3.00;;;3.40;72.30;;;;;;5054863;28;46947;-79
2022/01/20 08:35:39;;;;;;;5.97;3.90;;;3.40;72.30;;;;;;5046274;28;46575;-81
2022/01/20 08:38:07;;;;;;;4.30;3.38;;;3.40;72.30;;;;;;5050206;28;46461;-79
2022/01/20 08:40:34;;;;;;;5.30;3.20;;;3.40;72.30;;;;;;5048569;28;46428;-81
2022/01/20 08:43:00;;;;;;;4.13;3.08;;;3.40;72.30;;;;;;5035592;28;48275;-81
2022/01/20 08:45:28;;;;;;;4.65;3.55;;;3.30;72.20;;;;;;5046586;28;45819;-81
2022/01/20 08:47:55;;;;;;;3.35;2.85;;;3.30;72.20;;;;;;5046610;28;46342;-81
2022/01/20 08:50:22;;;;;;;4.10;2.87;;;3.30;72.30;;;;;;5049369;28;46426;-83
2022/01/20 08:52:48;;;;;;;3.65;2.53;;;3.20;73.00;;;;;;5046834;28;46391;-81
2022/01/20 08:55:15;;;;;;;2.70;1.97;;;3.10;73.80;;;;;;5045736;28;46340;-81
2022/01/20 08:57:44;;;;;;;3.35;2.22;;;2.90;74.70;;;;;;5045185;28;46434;-81
2022/01/20 09:00:14;;;;;;;3.47;2.72;;;2.90;75.30;;;;;;5048429;28;46379;-80
2022/01/20 09:02:40;;;;;;;4.18;3.10;;;3.00;75.30;;;;;;5018073;28;50602;-79
2022/01/20 09:05:06;;;;;;;3.40;2.30;;;3.10;75.20;;;;;;5048251;28;46390;-82
2022/01/20 09:07:32;;;;;;;3.20;2.60;;;3.10;74.80;;;;;;5043272;28;46200;-81
2022/01/20 09:10:00;;;;;;;4.57;2.63;;;3.10;75.40;;;;;;5040087;28;46371;-81
2022/01/20 09:17:42;;;;;;;4.45;2.92;;;3.30;74.60;;;;;;5043191;28;46479;-79
2022/01/20 09:20:08;;;;;;;3.60;2.73;;;3.40;74.50;;;;;;5038237;28;46507;-78
2022/01/20 09:22:33;;;;;;;5.40;3.10;;;3.20;74.60;;;;;;5000351;28;1249527;-79
2022/01/20 09:24:59;;;;;;;4.30;3.03;;;3.10;74.70;;;;;;5032218;28;46378;-80
2022/01/20 09:27:24;;;;;;;5.50;3.50;;;3.10;74.80;;;;;;5048365;28;46398;-81
2022/01/20 09:29:52;;;;;;;6.63;3.00;;;3.20;74.90;;;;;;5052130;28;46836;-82
2022/01/20 09:32:20;;;;;;;3.03;1.90;;;3.30;74.90;;;;;;5040106;28;48252;-81
2022/01/20 09:34:45;;;;;;;3.58;2.67;;;3.40;74.30;;;;;;5042033;28;46331;-79
2022/01/20 09:37:14;;;;;;;4.10;2.50;;;3.40;74.60;;;;;;5036260;28;46636;-79
2022/01/20 09:39:40;;;;;;;4.00;2.93;;;3.30;74.40;;;;;;5053508;28;46599;-79
2022/01/20 09:42:07;;;;;;;5.03;3.20;;;3.20;74.70;;;;;;5044322;28;47031;-79
2022/01/20 09:44:41;;;;;;;4.65;3.08;;;3.30;74.80;;;;;;5030288;28;46055;-79
2022/01/20 09:47:06;;;;;;;4.82;3.15;;;3.40;74.60;;;;;;5043557;28;46358;-80
2022/01/20 09:49:34;;;;;;;3.63;2.90;;;3.40;74.40;;;;;;5044192;28;46650;-78
2022/01/20 09:52:00;;;;;;;3.67;3.25;;;3.40;74.50;;;;;;5039940;28;49439;-80
2022/01/20 09:54:25;;;;;;;3.43;2.70;;;3.40;74.50;;;;;;5038876;28;46386;-80
2022/01/20 09:56:51;;;;;;;3.50;2.70;;;3.40;74.50;;;;;;5038165;28;46391;-79
2022/01/20 09:59:16;;;;;;;5.20;3.40;;;3.50;74.40;;;;;;5044046;28;46418;-79
2022/01/20 10:01:44;;;;;;;3.37;2.50;;;3.60;74.20;;;;;;5046898;28;46512;-80
2022/01/20 10:04:28;;;;;;;2.83;2.35;;;3.60;74.00;;;;;;5048600;28;46461;-79
2022/01/20 10:07:02;;;;;;;4.15;2.80;;;3.60;74.40;;;;;;5047467;28;46413;-81
2022/01/20 10:09:38;;;;;;;3.50;2.80;;;3.60;74.30;;;;;;5045378;28;46360;-79
2022/01/20 10:12:06;;;;;;;3.38;2.10;;;3.70;74.10;;;;;;5041808;28;46650;-80
2022/01/20 10:14:49;;;;;;;2.55;2.33;;;3.80;73.60;;;;;;5045393;28;46551;-77
2022/01/20 10:17:17;;;;;;;4.30;1.92;;;3.50;74.30;;;;;;5041507;28;46691;-79
2022/01/20 10:19:43;;;;;;;2.60;2.40;;;3.50;74.60;;;;;;5044879;28;46409;-78
2022/01/20 10:22:17;;;;;;;3.90;2.80;;;3.60;75.10;;;;;;5044891;28;46588;-79
2022/01/20 10:24:59;;;;;;;2.92;2.30;;;3.80;75.10;;;;;;5043708;28;46970;-80
2022/01/20 10:27:25;;;;;;;3.83;2.63;;;3.90;74.40;;;;;;5045573;28;46516;-78
2022/01/20 10:29:56;;;;;;;5.43;2.43;;;4.00;74.30;;;;;;5042198;28;46471;-79
2022/01/20 10:32:22;;;;;;;4.23;3.30;;;4.10;73.20;;;;;;5043067;28;46527;-80
2022/01/20 10:34:48;;;;;;;3.35;3.00;;;4.30;73.70;;;;;;5030198;28;46672;-78
2022/01/20 10:37:16;;;;;;;9.23;3.20;;;4.80;73.50;;;;;;5042391;28;46414;-79
2022/01/20 10:39:47;;;;;;;3.27;2.37;;;5.20;72.60;;;;;;5042713;28;46486;-78
2022/01/20 10:42:20;;;;;;;3.67;2.70;;;5.30;71.10;;;;;;5046065;28;48110;-77
2022/01/20 10:44:51;;;;;;;3.63;2.67;;;5.10;71.40;;;;;;5049852;28;46418;-79
2022/01/20 10:47:19;;;;;;;5.13;3.38;;;5.00;71.30;;;;;;5039657;28;46336;-81
2022/01/20 10:49:46;;;;;;;3.47;2.60;;;4.80;72.00;;;;;;5035317;28;46637;-82
2022/01/20 10:52:14;;;;;;;3.90;2.50;;;4.80;71.80;;;;;;5033486;28;49240;-83
2022/01/20 10:54:46;;;;;;;6.75;2.00;;;5.00;71.60;;;;;;5048270;28;46554;-80
2022/01/20 10:57:15;;;;;;;2.93;2.40;;;5.10;70.00;;;;;;5035920;28;46409;-82
2022/01/20 10:59:48;;;;;;;7.60;2.50;;;5.00;69.70;;;;;;5044053;28;46717;-81
2022/01/20 11:02:16;;;;;;;6.20;2.43;;;4.80;70.00;;;;;;5040036;28;46718;-80
2022/01/20 11:04:41;;;;;;;4.82;2.50;;;4.90;70.00;;;;;;5030274;28;46437;-80
2022/01/20 11:07:08;;;;;;;4.53;2.90;;;4.90;70.00;;;;;;5035302;28;48085;-80
2022/01/20 11:09:39;;;;;;;4.47;2.70;;;4.80;70.50;;;;;;5038349;28;46676;-80
2022/01/20 11:12:05;;;;;;;4.33;2.90;;;5.00;70.00;;;;;;5049066;28;46343;-79
2022/01/20 11:14:32;;;;;;;3.93;2.60;;;5.00;69.70;;;;;;5046585;28;46430;-81
2022/01/20 11:16:59;;;;;;;5.53;3.30;;;5.10;69.60;;;;;;5049758;28;46378;-80
2022/01/20 11:19:25;;;;;;;3.70;2.20;;;5.10;69.30;;;;;;5043222;28;46795;-81
2022/01/20 11:22:03;;;;;;;4.00;2.40;;;5.20;68.90;;;;;;5046372;28;46410;-80
2022/01/20 11:24:28;;;;;;;5.63;2.20;;;5.20;68.50;;;;;;5042212;28;46473;-80
2022/01/20 11:27:00;;;;;;;2.90;2.37;;;5.00;68.80;;;;;;5044137;28;46352;-81
2022/01/20 11:29:50;;;;;;;3.50;2.60;;;4.90;68.80;;;;;;5039484;28;46444;-82
2022/01/20 11:32:26;;;;;;;6.10;2.63;;;4.90;69.20;;;;;;5039816;28;46497;-80
2022/01/20 11:35:02;;;;;;;3.37;2.70;;;4.80;69.00;;;;;;5011947;28;46400;-80
2022/01/20 11:37:32;;;;;;;5.07;2.93;;;5.30;69.10;;;;;;5050030;28;46790;-81
2022/01/20 11:40:16;;;;;;;9.47;2.80;;;5.50;67.90;;;;;;5051950;28;46179;-79
2022/01/20 11:42:43;;;;;;;3.40;2.60;;;5.60;67.70;;;;;;5043523;28;46630;-80
2022/01/20 11:45:34;;;;;;;3.53;2.43;;;5.60;67.60;;;;;;5043026;28;46453;-79
2022/01/20 11:48:24;;;;;;;5.73;2.60;;;5.70;67.80;;;;;;5036957;28;46341;-79
2022/01/20 11:51:23;;;;;;;3.30;2.17;;;5.90;67.20;;;;;;5040774;28;46413;-79
2022/01/20 11:53:57;;;;;;;5.23;2.40;;;5.80;67.40;;;;;;5015761;28;46342;-81
2022/01/20 11:56:37;;;;;;;3.17;2.40;;;5.80;67.40;;;;;;5038764;28;46293;-79
2022/01/20 11:59:05;;;;;;;5.00;2.40;;;5.50;67.50;;;;;;5044995;28;46448;-80
2022/01/20 12:01:51;;;;;;;6.10;2.10;;;5.40;67.80;;;;;;5039719;28;46339;-80
2022/01/20 12:04:17;;;;;;;4.40;2.30;;;5.30;67.40;;;;;;5046922;28;47047;-80
2022/01/20 12:06:47;;;;;;;7.43;3.60;;;5.20;67.60;;;;;;5043091;28;46384;-82
2022/01/20 12:09:14;;;;;;;4.13;2.50;;;5.10;67.80;;;;;;5040872;28;46267;-79
2022/01/20 12:11:45;;;;;;;5.50;3.10;;;5.10;67.90;;;;;;5044433;28;46653;-78
2022/01/20 12:14:11;;;;;;;9.33;2.70;;;5.30;67.60;;;;;;5036949;28;48932;-81
2022/01/20 12:16:38;;;;;;;5.70;3.30;;;5.30;67.40;;;;;;5043332;28;46364;-80
2022/01/20 12:19:08;;;;;;;8.90;4.10;;;5.20;67.20;;;;;;5043794;28;46764;-82
2022/01/20 12:21:34;;;;;;;3.57;2.70;;;5.20;67.50;;;;;;5032681;28;46439;-82
2022/01/20 12:24:00;;;;;;;3.97;2.60;;;5.00;67.50;;;;;;5045097;28;47209;-81
2022/01/20 12:26:26;;;;;;;4.80;3.00;;;5.00;67.70;;;;;;5048750;28;46334;-84
2022/01/20 12:29:06;;;;;;;3.30;2.50;;;4.80;68.00;;;;;;5049294;28;46359;-83
2022/01/20 12:31:43;;;;;;;3.20;2.43;;;4.90;67.80;;;;;;5045440;28;46599;-82
2022/01/20 12:34:12;;;;;;;5.13;2.43;;;4.90;67.90;;;;;;5044458;28;46335;-82
2022/01/20 12:36:39;;;;;;;5.47;3.00;;;4.90;67.80;;;;;;5046338;28;46401;-83
2022/01/20 12:39:05;;;;;;;6.10;2.83;;;4.90;67.80;;;;;;5059290;28;46414;-83
2022/01/20 12:41:31;;;;;;;4.97;3.00;;;4.90;67.80;;;;;;5046364;28;46799;-82
2022/01/20 12:44:05;;;;;;;3.53;2.17;;;4.90;68.10;;;;;;5045884;28;47547;-84
2022/01/20 12:46:36;;;;;;;2.92;2.30;;;4.90;68.00;;;;;;5050513;28;46430;-82
2022/01/20 12:49:16;;;;;;;3.07;2.40;;;4.80;68.00;;;;;;5052544;28;46384;-79
2022/01/20 12:51:54;;;;;;;4.53;2.43;;;4.90;68.00;;;;;;5042939;28;46399;-81
2022/01/20 12:54:26;;;;;;;3.47;2.40;;;4.80;68.00;;;;;;5034929;28;48426;-84
2022/01/20 12:56:56;;;;;;;4.63;2.70;;;4.60;68.10;;;;;;5048599;28;46269;-82
2022/01/20 12:59:28;;;;;;;4.03;2.23;;;4.60;68.20;;;;;;5016264;28;46261;-82
2022/01/20 13:01:59;;;;;;;3.07;1.90;;;4.60;68.20;;;;;;5031856;28;46671;-81
2022/01/20 13:04:27;;;;;;;3.50;2.40;;;4.70;68.00;;;;;;5045045;28;46308;-79
2022/01/20 13:07:04;;;;;;;3.47;2.55;;;4.80;67.80;;;;;;5045485;28;46387;-82
2022/01/20 13:10:03;;;;;;;3.17;2.20;;;5.00;67.60;;;;;;5047928;28;46412;-80
2022/01/20 13:12:42;;;;;;;3.13;2.10;;;5.10;67.30;;;;;;5032723;28;46364;-81
2022/01/20 13:15:17;;;;;;;3.23;2.07;;;5.10;67.00;;;;;;5043126;28;46715;-81
2022/01/20 13:17:44;;;;;;;8.63;2.20;;;5.00;67.10;;;;;;5045371;28;46336;-80
2022/01/20 13:20:16;;;;;;;2.90;2.00;;;5.00;67.20;;;;;;5035855;28;46372;-80
2022/01/20 13:22:54;;;;;;;3.70;1.97;;;4.90;67.00;;;;;;5048299;28;46734;-80
2022/01/20 13:25:26;;;;;;;2.00;1.57;;;4.80;67.00;;;;;;5046542;28;46513;-82
2022/01/20 13:28:07;;;;;;;7.60;2.03;;;4.70;66.80;;;;;;5032099;28;46779;-81
2022/01/20 13:30:40;;;;;;;2.90;2.03;;;4.40;67.60;;;;;;5045661;28;46288;-79
2022/01/20 13:33:19;;;;;;;2.50;1.53;;;4.50;67.60;;;;;;5035487;28;46574;-79
2022/01/20 13:35:55;;;;;;;1.63;1.20;;;4.40;67.80;;;;;;5044090;28;46441;-80
2022/01/20 13:38:33;;;;;;;8.93;2.00;;;4.20;68.20;;;;;;5049432;28;46344;-82
2022/01/20 13:41:28;;;;;;;6.53;1.47;;;4.20;68.90;;;;;;5043296;28;46359;-79
2022/01/20 13:46:42;;;;;;;4.23;1.20;;;4.10;69.00;;;;;;5043841;28;46377;-82
2022/01/20 13:49:18;;;;;;;1.97;1.20;;;4.10;68.90;;;;;;5030196;28;46772;-82
2022/01/20 13:51:44;;;;;;;3.75;1.33;;;4.10;69.10;;;;;;5044147;28;46994;-78
2022/01/20 13:54:10;;;;;;;3.53;1.60;;;4.20;68.80;;;;;;5036910;28;46360;-79
2022/01/20 13:56:36;;;;;;;3.20;1.60;;;4.30;68.40;;;;;;5046816;28;46423;-80
2022/01/20 13:59:07;;;;;;;4.65;1.38;;;4.30;68.00;;;;;;5045182;28;46483;-78
2022/01/20 14:01:33;;;;;;;3.95;1.60;;;4.40;67.60;;;;;;5049222;28;45779;-78
2022/01/20 14:03:59;;;;;;;6.73;1.60;;;4.40;67.50;;;;;;5034986;28;46531;-80
2022/01/20 14:06:26;;;;;;;3.40;1.87;;;4.40;67.50;;;;;;5051111;28;46631;-80
2022/01/20 14:08:52;;;;;;;5.85;2.65;;;4.60;67.20;;;;;;5058874;28;46406;-80
2022/01/20 14:11:18;;;;;;;4.13;1.93;;;4.60;67.00;;;;;;5052236;28;46399;-82
2022/01/20 14:13:44;;;;;;;4.43;2.20;;;4.50;67.50;;;;;;5051896;28;46390;-81
2022/01/20 14:16:10;;;;;;;4.37;2.10;;;4.40;69.60;;;;;;5038549;28;48262;-80
2022/01/20 14:18:42;;;;;;;8.17;2.43;;;4.20;69.20;;;;;;5047732;28;46339;-78
2022/01/20 14:21:13;;;;;;;6.63;2.70;;;4.10;69.80;;;;;;5035116;28;46368;-80
2022/01/20 14:23:39;;;;;;;6.00;2.67;;;4.10;69.80;;;;;;5048476;28;46419;-78
2022/01/20 14:26:07;;;;;;;5.53;2.50;;;4.10;70.00;;;;;;5049261;28;46844;-80
2022/01/20 14:28:33;;;;;;;3.25;2.00;;;4.10;70.20;;;;;;5049063;28;46657;-81
2022/01/20 14:30:59;;;;;;;9.37;2.33;;;3.90;70.60;;;;;;5049191;28;46482;-79
2022/01/20 14:33:25;;;;;;;3.40;2.20;;;3.80;71.90;;;;;;5037975;28;45907;-80